sensor_id;sensor_type;location;lat;lon;timestamp;noise_LAeq;noise_LA_min;noise_LA_max;noise_LA01;noise_LA95
76339;Laerm;26644;50.248;19.032;2023-06-05T00:02:59;50.05;44.87;54.81;;
76339;Laerm;26644;50.248;19.032;2023-06-05T00:06:06;51.35;46.35;61.68;;
76339;Laerm;26644;50.248;19.032;2023-06-05T00:09:12;50.26;45.77;61.61;;
76339;Laerm;26644;50.248;19.032;2023-06-05T00:12:16;49.64;45.41;59.39;;
76339;Laerm;26644;50.248;19.032;2023-06-05T00:15:22;50.40;44.38;61.67;;
76339;Laerm;26644;50.248;19.032;2023-06-05T00:18:26;49.68;45.41;55.15;;
76339;Laerm;26644;50.248;19.032;2023-06-05T00:21:34;48.85;45.06;54.41;;
76339;Laerm;26644;50.248;19.032;2023-06-05T00:24:38;50.33;45.67;59.00;;
76339;Laerm;26644;50.248;19.032;2023-06-05T00:27:44;52.32;45.65;68.77;;
76339;Laerm;26644;50.248;19.032;2023-06-05T00:30:48;48.87;44.11;58.60;;
76339;Laerm;26644;50.248;19.032;2023-06-05T00:33:54;53.11;46.01;69.32;;
76339;Laerm;26644;50.248;19.032;2023-06-05T00:37:01;50.23;44.63;57.69;;
76339;Laerm;26644;50.248;19.032;2023-06-05T00:40:08;49.79;45.53;54.39;;
76339;Laerm;26644;50.248;19.032;2023-06-05T00:43:12;48.96;44.58;54.38;;
76339;Laerm;26644;50.248;19.032;2023-06-05T00:46:18;49.70;44.74;53.78;;
76339;Laerm;26644;50.248;19.032;2023-06-05T00:49:23;49.60;45.51;56.28;;
76339;Laerm;26644;50.248;19.032;2023-06-05T00:52:33;50.23;46.74;54.29;;
76339;Laerm;26644;50.248;19.032;2023-06-05T00:55:37;49.98;44.97;54.66;;
76339;Laerm;26644;50.248;19.032;2023-06-05T00:58:43;49.72;45.77;55.35;;
76339;Laerm;26644;50.248;19.032;2023-06-05T01:01:47;48.75;44.73;55.69;;
76339;Laerm;26644;50.248;19.032;2023-06-05T01:04:54;50.47;46.72;56.67;;
76339;Laerm;26644;50.248;19.032;2023-06-05T01:08:02;49.27;45.37;56.34;;
76339;Laerm;26644;50.248;19.032;2023-06-05T01:11:19;49.70;44.96;62.34;;
76339;Laerm;26644;50.248;19.032;2023-06-05T01:14:30;49.70;46.08;54.07;;
76339;Laerm;26644;50.248;19.032;2023-06-05T01:17:37;50.63;46.08;54.98;;
76339;Laerm;26644;50.248;19.032;2023-06-05T01:20:44;49.54;45.20;53.75;;
76339;Laerm;26644;50.248;19.032;2023-06-05T01:23:51;50.71;46.47;57.99;;
76339;Laerm;26644;50.248;19.032;2023-06-05T01:27:06;50.26;45.82;55.31;;
76339;Laerm;26644;50.248;19.032;2023-06-05T01:30:23;50.22;45.80;53.99;;
76339;Laerm;26644;50.248;19.032;2023-06-05T01:33:35;51.03;46.65;56.29;;
76339;Laerm;26644;50.248;19.032;2023-06-05T01:36:47;50.66;46.27;56.18;;
76339;Laerm;26644;50.248;19.032;2023-06-05T01:39:57;50.26;45.27;56.23;;
76339;Laerm;26644;50.248;19.032;2023-06-05T01:43:08;50.43;46.04;56.39;;
76339;Laerm;26644;50.248;19.032;2023-06-05T01:46:17;50.02;45.80;55.22;;
76339;Laerm;26644;50.248;19.032;2023-06-05T01:49:23;50.40;47.13;54.37;;
76339;Laerm;26644;50.248;19.032;2023-06-05T01:52:28;50.77;46.78;53.94;;
76339;Laerm;26644;50.248;19.032;2023-06-05T01:55:35;50.29;46.45;53.68;;
76339;Laerm;26644;50.248;19.032;2023-06-05T01:58:42;51.07;46.48;57.15;;
76339;Laerm;26644;50.248;19.032;2023-06-05T02:01:47;51.28;46.85;55.12;;
76339;Laerm;26644;50.248;19.032;2023-06-05T02:04:53;51.66;47.83;61.27;;
76339;Laerm;26644;50.248;19.032;2023-06-05T02:08:01;52.46;48.00;57.89;;
76339;Laerm;26644;50.248;19.032;2023-06-05T02:11:10;53.88;49.21;60.85;;
76339;Laerm;26644;50.248;19.032;2023-06-05T02:14:15;53.62;46.03;60.95;;
76339;Laerm;26644;50.248;19.032;2023-06-05T02:17:22;55.29;49.05;66.57;;
76339;Laerm;26644;50.248;19.032;2023-06-05T02:20:28;53.96;50.48;59.11;;
76339;Laerm;26644;50.248;19.032;2023-06-05T02:23:34;53.84;50.35;64.39;;
76339;Laerm;26644;50.248;19.032;2023-06-05T02:26:41;53.69;49.67;57.02;;
76339;Laerm;26644;50.248;19.032;2023-06-05T02:29:46;53.70;49.30;59.35;;
76339;Laerm;26644;50.248;19.032;2023-06-05T02:32:51;54.13;50.56;62.81;;
76339;Laerm;26644;50.248;19.032;2023-06-05T02:35:59;53.74;50.40;62.73;;
76339;Laerm;26644;50.248;19.032;2023-06-05T02:39:04;53.79;50.70;60.01;;
76339;Laerm;26644;50.248;19.032;2023-06-05T02:42:12;53.89;50.11;61.73;;
76339;Laerm;26644;50.248;19.032;2023-06-05T02:45:16;53.90;49.74;63.89;;
76339;Laerm;26644;50.248;19.032;2023-06-05T02:48:21;54.44;50.65;58.95;;
76339;Laerm;26644;50.248;19.032;2023-06-05T02:51:29;54.27;51.01;59.18;;
76339;Laerm;26644;50.248;19.032;2023-06-05T02:54:35;55.46;51.60;69.63;;
76339;Laerm;26644;50.248;19.032;2023-06-05T02:57:44;54.79;51.44;62.25;;
76339;Laerm;26644;50.248;19.032;2023-06-05T03:00:54;54.97;51.17;68.13;;
76339;Laerm;26644;50.248;19.032;2023-06-05T03:04:06;54.52;51.57;72.16;;
76339;Laerm;26644;50.248;19.032;2023-06-05T03:07:15;54.89;50.91;58.37;;
76339;Laerm;26644;50.248;19.032;2023-06-05T03:10:20;56.06;52.61;62.60;;
76339;Laerm;26644;50.248;19.032;2023-06-05T03:13:30;55.82;52.71;59.23;;
76339;Laerm;26644;50.248;19.032;2023-06-05T03:16:35;55.65;52.23;66.30;;
76339;Laerm;26644;50.248;19.032;2023-06-05T03:19:45;56.00;52.82;61.97;;
76339;Laerm;26644;50.248;19.032;2023-06-05T03:22:50;55.66;52.50;63.55;;
76339;Laerm;26644;50.248;19.032;2023-06-05T03:25:56;55.60;52.57;59.66;;
76339;Laerm;26644;50.248;19.032;2023-06-05T03:29:04;55.44;52.61;58.62;;
76339;Laerm;26644;50.248;19.032;2023-06-05T03:32:09;55.98;52.29;59.63;;
76339;Laerm;26644;50.248;19.032;2023-06-05T03:35:14;56.37;53.30;60.95;;
76339;Laerm;26644;50.248;19.032;2023-06-05T03:38:20;56.33;53.27;59.66;;
76339;Laerm;26644;50.248;19.032;2023-06-05T03:41:24;57.03;53.29;65.50;;
76339;Laerm;26644;50.248;19.032;2023-06-05T03:44:33;56.55;52.03;63.29;;
76339;Laerm;26644;50.248;19.032;2023-06-05T03:47:37;56.22;52.07;59.19;;
76339;Laerm;26644;50.248;19.032;2023-06-05T03:50:45;55.56;52.16;62.14;;
76339;Laerm;26644;50.248;19.032;2023-06-05T03:53:53;55.86;52.41;59.06;;
76339;Laerm;26644;50.248;19.032;2023-06-05T03:56:59;55.61;52.11;58.82;;
76339;Laerm;26644;50.248;19.032;2023-06-05T04:00:08;56.33;52.65;62.60;;
76339;Laerm;26644;50.248;19.032;2023-06-05T04:03:24;55.96;53.14;58.54;;
76339;Laerm;26644;50.248;19.032;2023-06-05T04:06:31;55.60;52.44;59.41;;
76339;Laerm;26644;50.248;19.032;2023-06-05T04:09:39;56.11;52.93;62.21;;
76339;Laerm;26644;50.248;19.032;2023-06-05T04:12:44;55.45;52.26;65.47;;
76339;Laerm;26644;50.248;19.032;2023-06-05T04:15:53;55.68;52.58;59.61;;
76339;Laerm;26644;50.248;19.032;2023-06-05T04:18:59;55.05;51.92;60.12;;
76339;Laerm;26644;50.248;19.032;2023-06-05T04:22:05;54.78;52.28;58.61;;
76339;Laerm;26644;50.248;19.032;2023-06-05T04:25:10;54.56;51.43;58.20;;
76339;Laerm;26644;50.248;19.032;2023-06-05T04:28:17;54.88;52.07;59.86;;
76339;Laerm;26644;50.248;19.032;2023-06-05T04:31:24;54.80;51.23;65.90;;
76339;Laerm;26644;50.248;19.032;2023-06-05T04:34:29;54.57;51.78;61.67;;
76339;Laerm;26644;50.248;19.032;2023-06-05T04:37:34;54.53;52.14;61.57;;
76339;Laerm;26644;50.248;19.032;2023-06-05T04:40:40;54.40;51.67;60.25;;
76339;Laerm;26644;50.248;19.032;2023-06-05T04:43:45;54.31;51.57;60.28;;
76339;Laerm;26644;50.248;19.032;2023-06-05T04:46:54;53.92;51.36;57.65;;
76339;Laerm;26644;50.248;19.032;2023-06-05T04:50:00;53.75;51.05;60.73;;
76339;Laerm;26644;50.248;19.032;2023-06-05T04:53:07;53.84;51.38;65.77;;
76339;Laerm;26644;50.248;19.032;2023-06-05T04:56:12;54.35;50.77;66.75;;
76339;Laerm;26644;50.248;19.032;2023-06-05T04:59:17;58.26;52.42;73.11;;
76339;Laerm;26644;50.248;19.032;2023-06-05T05:02:25;55.46;51.55;69.34;;
76339;Laerm;26644;50.248;19.032;2023-06-05T05:05:30;53.35;49.62;63.30;;
76339;Laerm;26644;50.248;19.032;2023-06-05T05:08:38;54.58;49.12;72.26;;
76339;Laerm;26644;50.248;19.032;2023-06-05T05:11:44;53.53;50.31;68.17;;
76339;Laerm;26644;50.248;19.032;2023-06-05T05:14:49;54.06;50.19;69.55;;
76339;Laerm;26644;50.248;19.032;2023-06-05T05:17:57;52.90;50.04;59.67;;
76339;Laerm;26644;50.248;19.032;2023-06-05T05:21:06;53.89;49.78;69.03;;
76339;Laerm;26644;50.248;19.032;2023-06-05T05:24:11;53.39;49.74;64.96;;
76339;Laerm;26644;50.248;19.032;2023-06-05T05:27:17;53.93;50.52;61.31;;
76339;Laerm;26644;50.248;19.032;2023-06-05T05:30:22;53.74;50.47;59.39;;
76339;Laerm;26644;50.248;19.032;2023-06-05T05:33:31;54.02;50.93;62.55;;
76339;Laerm;26644;50.248;19.032;2023-06-05T05:36:38;53.47;49.51;62.86;;
76339;Laerm;26644;50.248;19.032;2023-06-05T05:39:42;53.29;50.03;61.52;;
76339;Laerm;26644;50.248;19.032;2023-06-05T05:42:48;53.27;49.48;61.23;;
76339;Laerm;26644;50.248;19.032;2023-06-05T05:45:52;53.62;50.46;63.82;;
76339;Laerm;26644;50.248;19.032;2023-06-05T05:49:00;55.65;49.88;74.45;;
76339;Laerm;26644;50.248;19.032;2023-06-05T05:52:05;53.93;49.78;63.37;;
76339;Laerm;26644;50.248;19.032;2023-06-05T05:55:10;56.64;51.23;69.64;;
76339;Laerm;26644;50.248;19.032;2023-06-05T05:58:15;58.03;52.21;70.66;;
76339;Laerm;26644;50.248;19.032;2023-06-05T06:01:20;54.97;50.15;65.83;;
76339;Laerm;26644;50.248;19.032;2023-06-05T06:04:28;54.81;51.09;64.14;;
76339;Laerm;26644;50.248;19.032;2023-06-05T06:07:35;53.40;49.46;58.69;;
76339;Laerm;26644;50.248;19.032;2023-06-05T06:10:42;52.74;49.02;60.95;;
76339;Laerm;26644;50.248;19.032;2023-06-05T06:13:48;52.57;48.73;66.63;;
76339;Laerm;26644;50.248;19.032;2023-06-05T06:16:53;53.11;49.17;64.13;;
76339;Laerm;26644;50.248;19.032;2023-06-05T06:20:02;52.43;48.98;67.04;;
76339;Laerm;26644;50.248;19.032;2023-06-05T06:23:07;54.57;49.08;65.26;;
76339;Laerm;26644;50.248;19.032;2023-06-05T06:26:12;52.48;48.07;62.23;;
76339;Laerm;26644;50.248;19.032;2023-06-05T06:29:19;52.90;48.81;69.06;;
76339;Laerm;26644;50.248;19.032;2023-06-05T06:32:26;52.89;49.34;60.45;;
76339;Laerm;26644;50.248;19.032;2023-06-05T06:35:33;53.60;48.34;77.82;;
76339;Laerm;26644;50.248;19.032;2023-06-05T06:38:38;52.23;48.98;67.68;;
76339;Laerm;26644;50.248;19.032;2023-06-05T06:41:43;52.37;48.80;65.68;;
76339;Laerm;26644;50.248;19.032;2023-06-05T06:44:48;53.19;48.78;69.19;;
76339;Laerm;26644;50.248;19.032;2023-06-05T06:47:57;52.78;49.02;67.10;;
76339;Laerm;26644;50.248;19.032;2023-06-05T06:51:05;52.58;48.82;61.57;;
76339;Laerm;26644;50.248;19.032;2023-06-05T06:54:09;52.84;49.53;61.19;;
76339;Laerm;26644;50.248;19.032;2023-06-05T06:57:15;53.19;49.56;66.02;;
76339;Laerm;26644;50.248;19.032;2023-06-05T07:00:19;53.25;49.61;68.65;;
76339;Laerm;26644;50.248;19.032;2023-06-05T07:03:25;52.49;48.96;59.54;;
76339;Laerm;26644;50.248;19.032;2023-06-05T07:06:32;55.19;49.07;65.83;;
76339;Laerm;26644;50.248;19.032;2023-06-05T07:09:38;58.92;49.59;74.61;;
76339;Laerm;26644;50.248;19.032;2023-06-05T07:12:42;55.18;48.49;69.06;;
76339;Laerm;26644;50.248;19.032;2023-06-05T07:15:47;54.23;48.29;77.98;;
76339;Laerm;26644;50.248;19.032;2023-06-05T07:18:52;53.46;49.10;69.03;;
76339;Laerm;26644;50.248;19.032;2023-06-05T07:22:02;52.92;49.40;64.44;;
76339;Laerm;26644;50.248;19.032;2023-06-05T07:25:08;54.69;50.08;70.68;;
76339;Laerm;26644;50.248;19.032;2023-06-05T07:28:14;55.55;49.57;76.26;;
76339;Laerm;26644;50.248;19.032;2023-06-05T07:31:19;54.71;49.98;71.09;;
76339;Laerm;26644;50.248;19.032;2023-06-05T07:34:26;52.62;48.40;60.98;;
76339;Laerm;26644;50.248;19.032;2023-06-05T07:37:33;55.35;50.48;73.53;;
76339;Laerm;26644;50.248;19.032;2023-06-05T07:40:39;54.35;50.02;70.82;;
76339;Laerm;26644;50.248;19.032;2023-06-05T07:43:43;54.29;50.74;67.71;;
76339;Laerm;26644;50.248;19.032;2023-06-05T07:46:50;54.91;50.38;73.78;;
76339;Laerm;26644;50.248;19.032;2023-06-05T07:49:58;54.16;49.98;64.77;;
76339;Laerm;26644;50.248;19.032;2023-06-05T07:53:08;54.14;50.31;64.17;;
76339;Laerm;26644;50.248;19.032;2023-06-05T07:56:12;53.75;49.55;65.25;;
76339;Laerm;26644;50.248;19.032;2023-06-05T07:59:18;59.29;51.41;81.47;;
76339;Laerm;26644;50.248;19.032;2023-06-05T08:02:26;56.61;51.26;67.41;;
76339;Laerm;26644;50.248;19.032;2023-06-05T08:05:31;58.38;50.52;79.40;;
76339;Laerm;26644;50.248;19.032;2023-06-05T08:08:40;62.41;50.88;79.88;;
76339;Laerm;26644;50.248;19.032;2023-06-05T08:11:45;52.93;49.70;59.08;;
76339;Laerm;26644;50.248;19.032;2023-06-05T08:14:50;57.53;49.90;79.47;;
76339;Laerm;26644;50.248;19.032;2023-06-05T08:17:55;55.34;49.78;69.28;;
76339;Laerm;26644;50.248;19.032;2023-06-05T08:21:00;56.14;49.96;73.09;;
76339;Laerm;26644;50.248;19.032;2023-06-05T08:24:08;54.70;49.98;74.19;;
76339;Laerm;26644;50.248;19.032;2023-06-05T08:27:12;56.36;50.27;76.52;;
76339;Laerm;26644;50.248;19.032;2023-06-05T08:30:18;54.25;49.29;77.26;;
76339;Laerm;26644;50.248;19.032;2023-06-05T08:33:22;52.50;48.44;61.40;;
76339;Laerm;26644;50.248;19.032;2023-06-05T08:36:28;54.57;48.08;72.06;;
76339;Laerm;26644;50.248;19.032;2023-06-05T08:39:36;57.99;51.01;77.48;;
76339;Laerm;26644;50.248;19.032;2023-06-05T08:42:41;56.48;49.16;77.47;;
76339;Laerm;26644;50.248;19.032;2023-06-05T08:45:51;54.70;48.60;78.11;;
76339;Laerm;26644;50.248;19.032;2023-06-05T08:48:57;53.71;48.74;65.62;;
76339;Laerm;26644;50.248;19.032;2023-06-05T08:52:06;52.77;48.54;68.51;;
76339;Laerm;26644;50.248;19.032;2023-06-05T08:55:15;54.26;50.07;73.12;;
76339;Laerm;26644;50.248;19.032;2023-06-05T08:58:20;54.76;50.35;72.72;;
76339;Laerm;26644;50.248;19.032;2023-06-05T09:01:26;55.06;50.42;68.71;;
76339;Laerm;26644;50.248;19.032;2023-06-05T09:04:31;53.40;49.31;66.50;;
76339;Laerm;26644;50.248;19.032;2023-06-05T09:07:37;53.40;48.78;75.07;;
76339;Laerm;26644;50.248;19.032;2023-06-05T09:10:44;52.27;48.85;59.80;;
76339;Laerm;26644;50.248;19.032;2023-06-05T09:13:50;53.28;48.37;73.08;;
76339;Laerm;26644;50.248;19.032;2023-06-05T09:16:54;53.66;49.84;60.74;;
76339;Laerm;26644;50.248;19.032;2023-06-05T09:19:59;55.19;50.03;70.16;;
76339;Laerm;26644;50.248;19.032;2023-06-05T09:23:22;57.24;50.92;76.41;;
76339;Laerm;26644;50.248;19.032;2023-06-05T09:26:50;57.25;49.73;74.19;;
76339;Laerm;26644;50.248;19.032;2023-06-05T09:30:03;54.35;49.64;69.92;;
76339;Laerm;26644;50.248;19.032;2023-06-05T09:33:10;54.14;50.41;63.61;;
76339;Laerm;26644;50.248;19.032;2023-06-05T09:36:16;55.02;50.41;67.97;;
76339;Laerm;26644;50.248;19.032;2023-06-05T09:39:22;54.61;49.73;71.11;;
76339;Laerm;26644;50.248;19.032;2023-06-05T09:42:36;61.74;51.23;83.92;;
76339;Laerm;26644;50.248;19.032;2023-06-05T09:45:43;60.41;51.15;82.44;;
76339;Laerm;26644;50.248;19.032;2023-06-05T09:48:57;56.59;49.55;72.86;;
76339;Laerm;26644;50.248;19.032;2023-06-05T09:52:03;56.58;50.29;77.12;;
76339;Laerm;26644;50.248;19.032;2023-06-05T09:55:08;55.06;49.64;73.63;;
76339;Laerm;26644;50.248;19.032;2023-06-05T09:58:19;56.29;49.51;78.16;;
76339;Laerm;26644;50.248;19.032;2023-06-05T10:01:24;56.14;51.12;69.86;;
76339;Laerm;26644;50.248;19.032;2023-06-05T10:04:38;57.14;50.26;76.45;;
76339;Laerm;26644;50.248;19.032;2023-06-05T10:07:43;54.67;49.53;71.96;;
76339;Laerm;26644;50.248;19.032;2023-06-05T10:10:57;55.84;49.75;76.41;;
76339;Laerm;26644;50.248;19.032;2023-06-05T10:14:06;52.42;48.67;65.62;;
76339;Laerm;26644;50.248;19.032;2023-06-05T10:17:12;52.79;49.54;61.04;;
76339;Laerm;26644;50.248;19.032;2023-06-05T10:20:17;55.42;49.56;74.49;;
76339;Laerm;26644;50.248;19.032;2023-06-05T10:23:24;54.92;49.59;69.33;;
76339;Laerm;26644;50.248;19.032;2023-06-05T10:27:11;55.76;48.94;74.32;;
76339;Laerm;26644;50.248;19.032;2023-06-05T10:30:59;55.27;49.07;74.49;;
76339;Laerm;26644;50.248;19.032;2023-06-05T10:34:40;55.51;49.21;71.62;;
76339;Laerm;26644;50.248;19.032;2023-06-05T10:38:16;55.94;49.44;74.93;;
76339;Laerm;26644;50.248;19.032;2023-06-05T10:41:22;53.96;48.27;69.88;;
76339;Laerm;26644;50.248;19.032;2023-06-05T10:44:42;58.77;49.21;80.88;;
76339;Laerm;26644;50.248;19.032;2023-06-05T10:47:52;55.65;49.94;74.23;;
76339;Laerm;26644;50.248;19.032;2023-06-05T10:51:33;55.45;50.54;71.90;;
76339;Laerm;26644;50.248;19.032;2023-06-05T10:54:54;53.18;50.11;63.86;;
76339;Laerm;26644;50.248;19.032;2023-06-05T10:58:12;53.64;48.52;71.48;;
76339;Laerm;26644;50.248;19.032;2023-06-05T11:01:20;52.33;48.37;61.98;;
76339;Laerm;26644;50.248;19.032;2023-06-05T11:05:09;53.67;48.80;70.04;;
76339;Laerm;26644;50.248;19.032;2023-06-05T11:08:17;53.97;48.86;66.74;;
76339;Laerm;26644;50.248;19.032;2023-06-05T11:11:23;54.18;49.39;67.94;;
76339;Laerm;26644;50.248;19.032;2023-06-05T11:14:44;53.44;49.22;68.09;;
76339;Laerm;26644;50.248;19.032;2023-06-05T11:17:49;54.68;49.81;70.99;;
76339;Laerm;26644;50.248;19.032;2023-06-05T11:20:58;53.83;49.49;64.54;;
76339;Laerm;26644;50.248;19.032;2023-06-05T11:24:16;56.85;50.56;73.10;;
76339;Laerm;26644;50.248;19.032;2023-06-05T11:27:42;52.83;48.48;61.48;;
76339;Laerm;26644;50.248;19.032;2023-06-05T11:30:49;52.21;48.04;60.17;;
76339;Laerm;26644;50.248;19.032;2023-06-05T11:33:53;52.86;48.78;60.14;;
76339;Laerm;26644;50.248;19.032;2023-06-05T11:37:19;53.55;49.87;68.06;;
76339;Laerm;26644;50.248;19.032;2023-06-05T11:40:25;55.54;50.06;72.37;;
76339;Laerm;26644;50.248;19.032;2023-06-05T11:43:30;54.14;48.77;65.82;;
76339;Laerm;26644;50.248;19.032;2023-06-05T11:46:39;56.73;49.05;81.16;;
76339;Laerm;26644;50.248;19.032;2023-06-05T11:49:44;52.62;49.13;60.48;;
76339;Laerm;26644;50.248;19.032;2023-06-05T11:52:51;53.84;49.29;69.53;;
76339;Laerm;26644;50.248;19.032;2023-06-05T11:56:13;53.18;48.55;71.42;;
76339;Laerm;26644;50.248;19.032;2023-06-05T11:59:18;51.18;47.37;59.31;;
76339;Laerm;26644;50.248;19.032;2023-06-05T12:02:25;52.50;48.91;60.20;;
76339;Laerm;26644;50.248;19.032;2023-06-05T12:05:29;53.48;49.19;69.08;;
76339;Laerm;26644;50.248;19.032;2023-06-05T12:08:37;52.58;48.24;63.43;;
76339;Laerm;26644;50.248;19.032;2023-06-05T12:11:43;51.92;47.23;67.16;;
76339;Laerm;26644;50.248;19.032;2023-06-05T12:14:49;53.36;48.72;63.37;;
76339;Laerm;26644;50.248;19.032;2023-06-05T12:17:56;53.10;47.83;74.20;;
76339;Laerm;26644;50.248;19.032;2023-06-05T12:21:03;52.40;48.82;62.01;;
76339;Laerm;26644;50.248;19.032;2023-06-05T12:24:11;51.72;48.05;59.43;;
76339;Laerm;26644;50.248;19.032;2023-06-05T12:27:16;54.25;47.72;69.93;;
76339;Laerm;26644;50.248;19.032;2023-06-05T12:30:22;52.38;48.34;69.36;;
76339;Laerm;26644;50.248;19.032;2023-06-05T12:33:27;52.62;48.53;63.28;;
76339;Laerm;26644;50.248;19.032;2023-06-05T12:36:38;51.63;48.35;60.62;;
76339;Laerm;26644;50.248;19.032;2023-06-05T12:39:47;52.55;48.46;67.02;;
76339;Laerm;26644;50.248;19.032;2023-06-05T12:42:52;56.35;48.67;75.88;;
76339;Laerm;26644;50.248;19.032;2023-06-05T12:45:58;53.37;49.64;63.13;;
76339;Laerm;26644;50.248;19.032;2023-06-05T12:49:03;53.88;49.32;63.88;;
76339;Laerm;26644;50.248;19.032;2023-06-05T12:52:09;54.04;50.31;66.54;;
76339;Laerm;26644;50.248;19.032;2023-06-05T12:55:16;54.42;50.15;72.44;;
76339;Laerm;26644;50.248;19.032;2023-06-05T12:58:22;54.65;49.22;69.68;;
76339;Laerm;26644;50.248;19.032;2023-06-05T13:01:27;54.05;47.98;72.61;;
76339;Laerm;26644;50.248;19.032;2023-06-05T13:04:33;53.93;46.93;74.83;;
76339;Laerm;26644;50.248;19.032;2023-06-05T13:07:38;54.27;48.39;70.31;;
76339;Laerm;26644;50.248;19.032;2023-06-05T13:10:46;51.81;46.78;66.13;;
76339;Laerm;26644;50.248;19.032;2023-06-05T13:13:52;52.98;48.45;70.73;;
76339;Laerm;26644;50.248;19.032;2023-06-05T13:16:59;53.44;49.03;69.84;;
76339;Laerm;26644;50.248;19.032;2023-06-05T13:20:05;52.56;49.09;63.06;;
76339;Laerm;26644;50.248;19.032;2023-06-05T13:23:12;52.02;48.30;70.38;;
76339;Laerm;26644;50.248;19.032;2023-06-05T13:26:19;59.15;48.92;76.35;;
76339;Laerm;26644;50.248;19.032;2023-06-05T13:29:25;52.55;48.15;61.08;;
76339;Laerm;26644;50.248;19.032;2023-06-05T13:32:29;52.54;47.15;70.55;;
76339;Laerm;26644;50.248;19.032;2023-06-05T13:35:36;53.17;48.15;73.00;;
76339;Laerm;26644;50.248;19.032;2023-06-05T13:38:40;51.19;47.59;63.96;;
76339;Laerm;26644;50.248;19.032;2023-06-05T13:41:48;52.46;46.38;64.88;;
76339;Laerm;26644;50.248;19.032;2023-06-05T13:44:53;51.08;47.46;60.62;;
76339;Laerm;26644;50.248;19.032;2023-06-05T13:47:58;50.48;47.27;60.84;;
76339;Laerm;26644;50.248;19.032;2023-06-05T13:51:03;53.35;47.01;69.36;;
76339;Laerm;26644;50.248;19.032;2023-06-05T13:54:08;53.16;47.92;68.31;;
76339;Laerm;26644;50.248;19.032;2023-06-05T13:57:15;51.47;46.22;70.59;;
76339;Laerm;26644;50.248;19.032;2023-06-05T14:00:22;51.77;46.91;66.39;;
76339;Laerm;26644;50.248;19.032;2023-06-05T14:03:26;49.85;45.78;67.68;;
76339;Laerm;26644;50.248;19.032;2023-06-05T14:06:32;50.72;46.08;62.03;;
76339;Laerm;26644;50.248;19.032;2023-06-05T14:09:39;53.40;47.40;68.00;;
76339;Laerm;26644;50.248;19.032;2023-06-05T14:12:47;50.78;47.20;66.54;;
76339;Laerm;26644;50.248;19.032;2023-06-05T14:15:52;52.48;48.10;69.76;;
76339;Laerm;26644;50.248;19.032;2023-06-05T14:18:57;51.90;48.08;63.26;;
76339;Laerm;26644;50.248;19.032;2023-06-05T14:22:01;54.46;47.51;76.77;;
76339;Laerm;26644;50.248;19.032;2023-06-05T14:25:08;55.04;46.55;74.15;;
76339;Laerm;26644;50.248;19.032;2023-06-05T14:28:16;50.75;46.53;67.22;;
76339;Laerm;26644;50.248;19.032;2023-06-05T14:31:21;49.69;46.60;61.53;;
76339;Laerm;26644;50.248;19.032;2023-06-05T14:34:29;50.54;46.30;60.95;;
76339;Laerm;26644;50.248;19.032;2023-06-05T14:37:34;53.59;46.84;71.81;;
76339;Laerm;26644;50.248;19.032;2023-06-05T14:40:39;51.10;46.75;64.05;;
76339;Laerm;26644;50.248;19.032;2023-06-05T14:43:46;52.04;47.79;69.76;;
76339;Laerm;26644;50.248;19.032;2023-06-05T14:46:54;52.02;47.84;67.89;;
76339;Laerm;26644;50.248;19.032;2023-06-05T14:50:00;52.91;47.52;70.65;;
76339;Laerm;26644;50.248;19.032;2023-06-05T14:53:04;51.21;47.71;69.11;;
76339;Laerm;26644;50.248;19.032;2023-06-05T14:56:10;51.51;48.46;60.27;;
76339;Laerm;26644;50.248;19.032;2023-06-05T14:59:17;52.08;47.11;66.22;;
76339;Laerm;26644;50.248;19.032;2023-06-05T15:02:22;50.48;47.68;68.77;;
76339;Laerm;26644;50.248;19.032;2023-06-05T15:05:27;50.98;47.10;64.22;;
76339;Laerm;26644;50.248;19.032;2023-06-05T15:08:32;52.24;47.67;76.89;;
76339;Laerm;26644;50.248;19.032;2023-06-05T15:11:37;52.74;47.34;73.45;;
76339;Laerm;26644;50.248;19.032;2023-06-05T15:14:45;52.22;48.20;66.79;;
76339;Laerm;26644;50.248;19.032;2023-06-05T15:17:49;55.45;49.16;69.65;;
76339;Laerm;26644;50.248;19.032;2023-06-05T15:20:56;55.26;49.23;73.99;;
76339;Laerm;26644;50.248;19.032;2023-06-05T15:24:00;55.81;49.35;74.68;;
76339;Laerm;26644;50.248;19.032;2023-06-05T15:27:06;52.97;48.60;65.93;;
76339;Laerm;26644;50.248;19.032;2023-06-05T15:30:15;54.18;49.46;73.53;;
76339;Laerm;26644;50.248;19.032;2023-06-05T15:33:20;54.88;48.79;77.35;;
76339;Laerm;26644;50.248;19.032;2023-06-05T15:36:24;55.75;48.84;71.90;;
76339;Laerm;26644;50.248;19.032;2023-06-05T15:39:30;54.33;48.97;71.30;;
76339;Laerm;26644;50.248;19.032;2023-06-05T15:42:37;53.98;48.68;71.08;;
76339;Laerm;26644;50.248;19.032;2023-06-05T15:45:45;53.39;48.57;66.29;;
76339;Laerm;26644;50.248;19.032;2023-06-05T15:48:49;52.60;47.67;61.03;;
76339;Laerm;26644;50.248;19.032;2023-06-05T15:51:55;57.43;49.16;77.34;;
76339;Laerm;26644;50.248;19.032;2023-06-05T15:54:59;54.92;49.35;75.02;;
76339;Laerm;26644;50.248;19.032;2023-06-05T15:58:08;55.55;49.81;70.52;;
76339;Laerm;26644;50.248;19.032;2023-06-05T16:01:15;54.40;49.06;69.94;;
76339;Laerm;26644;50.248;19.032;2023-06-05T16:04:21;57.69;48.45;76.26;;
76339;Laerm;26644;50.248;19.032;2023-06-05T16:07:25;56.87;49.56;74.82;;
76339;Laerm;26644;50.248;19.032;2023-06-05T16:10:30;56.11;48.09;78.51;;
76339;Laerm;26644;50.248;19.032;2023-06-05T16:13:36;53.75;49.37;72.59;;
76339;Laerm;26644;50.248;19.032;2023-06-05T16:16:44;52.18;48.62;61.55;;
76339;Laerm;26644;50.248;19.032;2023-06-05T16:19:48;53.10;49.04;69.43;;
76339;Laerm;26644;50.248;19.032;2023-06-05T16:22:54;52.53;48.62;61.33;;
76339;Laerm;26644;50.248;19.032;2023-06-05T16:25:58;52.33;48.68;59.37;;
76339;Laerm;26644;50.248;19.032;2023-06-05T16:29:03;53.15;48.43;68.04;;
76339;Laerm;26644;50.248;19.032;2023-06-05T16:32:10;52.34;48.52;59.66;;
76339;Laerm;26644;50.248;19.032;2023-06-05T16:35:16;53.29;49.20;70.10;;
76339;Laerm;26644;50.248;19.032;2023-06-05T16:38:21;52.39;47.53;58.80;;
76339;Laerm;26644;50.248;19.032;2023-06-05T16:41:26;52.92;48.71;63.12;;
76339;Laerm;26644;50.248;19.032;2023-06-05T16:44:31;53.19;49.75;67.68;;
76339;Laerm;26644;50.248;19.032;2023-06-05T16:47:39;52.50;49.06;62.76;;
76339;Laerm;26644;50.248;19.032;2023-06-05T16:50:44;52.47;48.77;59.86;;
76339;Laerm;26644;50.248;19.032;2023-06-05T16:53:50;51.90;48.46;61.75;;
76339;Laerm;26644;50.248;19.032;2023-06-05T16:56:55;52.66;48.06;63.89;;
76339;Laerm;26644;50.248;19.032;2023-06-05T17:00:00;52.32;47.77;61.52;;
76339;Laerm;26644;50.248;19.032;2023-06-05T17:03:11;52.47;47.04;72.33;;
76339;Laerm;26644;50.248;19.032;2023-06-05T17:06:17;52.51;48.63;69.92;;
76339;Laerm;26644;50.248;19.032;2023-06-05T17:09:21;53.47;48.74;79.15;;
76339;Laerm;26644;50.248;19.032;2023-06-05T17:12:26;52.52;48.93;64.68;;
76339;Laerm;26644;50.248;19.032;2023-06-05T17:15:31;52.91;48.77;63.44;;